Time;durP1;ratioP1;P1;durP2;ratioP2;P2;SDS_P1;SDS_P2;PMS_P1;PMS_P2;Temp;Humidity;BMP_temperature;BMP_pressure;BME280_temperature;BME280_humidity;BME280_pressure;Samples;Min_cycle;Max_cycle;Signal;HPM_P1;HPM_P2
2021/08/17 00:02:00;;;;;;;9.95;5.47;;;11.40;99.90;;;;;;5058554;28;20045;-73
2021/08/17 00:04:27;;;;;;;11.63;5.68;;;11.30;99.90;;;;;;5052764;28;20032;-74
2021/08/17 00:06:53;;;;;;;5.97;5.15;;;11.30;99.90;;;;;;5052056;28;20056;-74
2021/08/17 00:09:19;;;;;;;8.13;4.65;;;11.30;99.90;;;;;;5051490;28;20490;-74
2021/08/17 00:11:45;;;;;;;10.95;4.82;;;11.30;99.90;;;;;;5066721;28;20037;-74
2021/08/17 00:14:11;;;;;;;13.25;6.15;;;11.30;99.90;;;;;;5052320;28;20037;-73
2021/08/17 00:16:38;;;;;;;8.23;5.18;;;11.20;99.90;;;;;;5052711;28;20045;-74
2021/08/17 00:19:04;;;;;;;15.57;5.78;;;11.10;99.90;;;;;;5052174;28;20051;-74
2021/08/17 00:21:30;;;;;;;13.70;5.20;;;11.10;99.90;;;;;;5053266;28;20063;-78
2021/08/17 00:23:59;;;;;;;9.95;5.85;;;11.10;99.90;;;;;;5057914;28;20040;-75
2021/08/17 00:26:25;;;;;;;9.25;6.32;;;11.10;99.90;;;;;;5056798;28;20036;-73
2021/08/17 00:28:51;;;;;;;6.30;5.05;;;11.00;99.90;;;;;;5056220;28;20043;-74
2021/08/17 00:31:17;;;;;;;10.27;5.00;;;11.00;99.90;;;;;;5056812;28;20041;-74
2021/08/17 00:33:44;;;;;;;6.57;5.07;;;11.10;99.90;;;;;;5056081;28;20060;-73
2021/08/17 00:36:10;;;;;;;6.70;5.07;;;11.00;99.90;;;;;;5065843;28;20024;-74
2021/08/17 00:38:40;;;;;;;12.93;5.53;;;11.00;99.90;;;;;;5063010;28;20024;-73
2021/08/17 00:41:07;;;;;;;8.52;4.70;;;10.90;99.90;;;;;;5056417;28;20040;-75
2021/08/17 00:43:34;;;;;;;7.25;5.57;;;10.90;99.90;;;;;;5056953;28;20031;-75
2021/08/17 00:46:04;;;;;;;8.48;5.10;;;10.90;99.90;;;;;;5056022;28;20036;-75
2021/08/17 00:48:32;;;;;;;7.95;5.07;;;10.90;99.90;;;;;;5062485;28;20458;-73
2021/08/17 00:50:58;;;;;;;10.55;5.30;;;11.00;99.90;;;;;;5062753;28;20446;-73
2021/08/17 00:53:25;;;;;;;9.00;4.82;;;11.00;99.90;;;;;;5054875;28;20033;-73
2021/08/17 00:55:51;;;;;;;11.18;5.28;;;10.90;99.90;;;;;;5056083;28;20044;-73
2021/08/17 00:58:19;;;;;;;12.93;5.68;;;10.90;99.90;;;;;;5055797;28;20033;-73
2021/08/17 01:00:47;;;;;;;6.50;5.32;;;10.80;99.90;;;;;;5055822;28;20029;-79
2021/08/17 01:03:14;;;;;;;12.43;5.60;;;10.90;99.90;;;;;;5055609;28;20029;-73
2021/08/17 01:05:40;;;;;;;10.50;5.32;;;10.80;99.90;;;;;;5055782;28;20033;-72
2021/08/17 01:08:08;;;;;;;9.55;5.63;;;10.80;99.90;;;;;;5055112;28;20036;-73
2021/08/17 01:10:41;;;;;;;7.60;5.60;;;10.80;99.90;;;;;;5055396;28;20044;-73
2021/08/17 01:13:08;;;;;;;8.35;5.10;;;10.70;99.90;;;;;;5055424;28;20040;-74
2021/08/17 01:15:34;;;;;;;10.35;5.68;;;10.70;99.90;;;;;;5054714;28;20425;-74
2021/08/17 01:18:01;;;;;;;9.98;4.80;;;10.70;99.90;;;;;;5072903;28;20040;-73
2021/08/17 01:20:30;;;;;;;9.15;4.90;;;10.70;99.90;;;;;;5066237;28;20040;-73
2021/08/17 01:22:56;;;;;;;6.78;4.35;;;10.80;99.90;;;;;;5055205;28;20040;-73
2021/08/17 01:25:24;;;;;;;5.85;3.85;;;10.80;99.90;;;;;;5054530;28;20045;-74
2021/08/17 01:27:50;;;;;;;8.23;4.13;;;10.90;99.90;;;;;;5061365;28;20474;-74
2021/08/17 01:30:16;;;;;;;7.13;4.57;;;10.80;99.90;;;;;;5055237;28;20033;-73
2021/08/17 01:32:47;;;;;;;9.68;4.78;;;10.90;99.90;;;;;;5062411;28;20177;-73
2021/08/17 01:35:14;;;;;;;9.02;4.80;;;10.90;99.90;;;;;;5071289;28;20029;-73
2021/08/17 01:37:40;;;;;;;9.43;4.75;;;11.00;99.90;;;;;;5063345;28;20033;-73
2021/08/17 01:40:09;;;;;;;6.93;4.50;;;10.90;99.90;;;;;;5061665;28;20045;-73
2021/08/17 01:42:37;;;;;;;6.35;4.30;;;11.00;99.90;;;;;;5055579;28;20029;-72
2021/08/17 01:45:03;;;;;;;7.85;4.22;;;11.10;99.90;;;;;;5059620;28;20029;-77
2021/08/17 01:47:31;;;;;;;8.80;5.18;;;11.10;99.90;;;;;;5059155;28;20033;-73
2021/08/17 01:50:00;;;;;;;6.20;4.57;;;11.20;99.90;;;;;;5073048;28;20040;-73
2021/08/17 01:52:27;;;;;;;8.45;4.28;;;11.30;99.90;;;;;;5063613;28;20386;-73
2021/08/17 01:54:53;;;;;;;7.90;4.07;;;11.30;99.90;;;;;;5057539;28;20176;-74
2021/08/17 01:57:20;;;;;;;5.13;3.65;;;11.30;99.90;;;;;;5054897;28;20041;-75
2021/08/17 01:59:47;;;;;;;7.22;4.25;;;11.30;99.90;;;;;;5054407;28;20033;-77
2021/08/17 02:02:13;;;;;;;6.75;4.30;;;11.40;99.90;;;;;;5055480;28;20595;-73
2021/08/17 02:04:39;;;;;;;10.40;4.72;;;11.40;99.90;;;;;;5054427;28;20466;-74
2021/08/17 02:07:06;;;;;;;8.27;4.80;;;11.40;99.90;;;;;;5053554;28;20032;-75
2021/08/17 02:09:32;;;;;;;10.32;4.28;;;11.50;99.90;;;;;;5072319;28;20047;-74
2021/08/17 02:11:59;;;;;;;7.20;4.72;;;11.60;99.90;;;;;;5057631;28;20455;-73
2021/08/17 02:14:25;;;;;;;8.85;3.47;;;11.60;99.90;;;;;;5054169;28;20037;-75
2021/08/17 02:16:52;;;;;;;5.57;4.15;;;11.80;99.90;;;;;;5052882;28;20029;-76
2021/08/17 02:19:19;;;;;;;7.60;3.65;;;11.80;99.90;;;;;;5066889;28;20036;-75
2021/08/17 02:21:45;;;;;;;9.48;4.50;;;12.00;99.90;;;;;;5053492;28;20028;-76
2021/08/17 02:24:11;;;;;;;4.93;3.58;;;12.00;99.90;;;;;;5052979;28;20029;-77
2021/08/17 02:26:38;;;;;;;7.30;4.78;;;12.00;99.90;;;;;;5066521;28;20025;-76
2021/08/17 02:29:04;;;;;;;8.02;4.47;;;12.00;99.90;;;;;;5054827;28;20048;-76
2021/08/17 02:31:30;;;;;;;9.45;3.78;;;12.00;99.90;;;;;;5053965;28;20033;-76
2021/08/17 02:33:56;;;;;;;10.82;4.82;;;12.00;99.90;;;;;;5071563;28;20465;-77
2021/08/17 02:36:23;;;;;;;7.85;3.38;;;12.10;99.90;;;;;;5053450;28;20370;-76
2021/08/17 02:38:49;;;;;;;6.78;3.72;;;12.10;99.90;;;;;;5067116;28;20055;-76
2021/08/17 02:41:15;;;;;;;5.80;3.08;;;12.10;99.90;;;;;;5052918;28;20048;-75
2021/08/17 02:43:42;;;;;;;6.63;3.83;;;12.10;99.90;;;;;;5053412;28;20497;-75
2021/08/17 02:46:09;;;;;;;8.05;3.80;;;12.10;99.90;;;;;;5066186;28;20482;-76
2021/08/17 02:48:35;;;;;;;9.45;4.13;;;12.20;99.90;;;;;;5071644;28;20072;-76
2021/08/17 02:51:01;;;;;;;7.22;4.32;;;12.10;99.90;;;;;;5056373;28;20041;-75
2021/08/17 02:53:27;;;;;;;8.77;4.07;;;12.20;99.90;;;;;;5052721;28;20037;-76
2021/08/17 02:55:53;;;;;;;12.57;5.00;;;12.20;99.90;;;;;;5052711;28;20037;-75
2021/08/17 02:58:19;;;;;;;8.05;4.75;;;12.20;99.90;;;;;;5053175;28;20041;-76
2021/08/17 03:00:46;;;;;;;9.98;4.65;;;12.20;99.90;;;;;;5051757;28;20028;-75
2021/08/17 03:03:12;;;;;;;7.43;4.97;;;12.20;99.90;;;;;;5052197;28;20367;-76
2021/08/17 03:05:39;;;;;;;7.68;4.57;;;12.20;99.90;;;;;;5067217;28;20037;-76
2021/08/17 03:08:06;;;;;;;11.48;5.07;;;12.20;99.90;;;;;;5052480;28;20047;-76
2021/08/17 03:10:35;;;;;;;15.45;5.20;;;12.20;99.90;;;;;;5053178;28;20058;-75
2021/08/17 03:13:04;;;;;;;12.20;4.85;;;12.30;99.90;;;;;;5052628;28;20032;-75
2021/08/17 03:15:32;;;;;;;9.88;4.85;;;12.30;99.90;;;;;;5051513;28;20055;-76
2021/08/17 03:18:00;;;;;;;13.45;5.43;;;12.30;99.90;;;;;;5060755;28;20032;-76
2021/08/17 03:20:27;;;;;;;9.60;5.20;;;12.30;99.90;;;;;;5056377;28;20028;-75
2021/08/17 03:22:54;;;;;;;9.55;5.05;;;12.40;99.90;;;;;;5065454;28;20036;-76
2021/08/17 03:25:20;;;;;;;7.93;4.78;;;12.40;99.90;;;;;;5056693;28;20040;-75
2021/08/17 03:27:47;;;;;;;10.18;4.85;;;12.40;99.90;;;;;;5071951;28;20485;-76
2021/08/17 03:30:14;;;;;;;11.38;5.60;;;12.40;99.90;;;;;;5058082;28;20032;-74
2021/08/17 03:32:41;;;;;;;11.43;6.80;;;12.40;99.90;;;;;;5051833;28;20036;-78
2021/08/17 03:35:09;;;;;;;12.23;4.85;;;12.50;99.90;;;;;;5055394;28;20028;-76
2021/08/17 03:37:37;;;;;;;12.43;5.15;;;12.40;99.90;;;;;;5061181;28;20044;-77
2021/08/17 03:40:15;;;;;;;12.45;4.65;;;12.40;99.90;;;;;;5052033;28;20033;-76
2021/08/17 03:42:42;;;;;;;9.50;5.63;;;12.40;99.90;;;;;;5060322;28;20029;-76
2021/08/17 03:45:11;;;;;;;12.45;6.03;;;12.40;99.90;;;;;;5066006;28;20044;-76
2021/08/17 03:47:37;;;;;;;11.52;6.13;;;12.40;99.90;;;;;;5052206;28;20425;-76
2021/08/17 03:50:06;;;;;;;10.13;5.53;;;12.50;99.90;;;;;;5052154;28;20410;-76
2021/08/17 03:52:33;;;;;;;8.25;4.68;;;12.40;99.90;;;;;;5052256;28;20029;-75
2021/08/17 03:54:59;;;;;;;7.28;5.40;;;12.40;99.90;;;;;;5083583;28;20481;-76
2021/08/17 03:57:26;;;;;;;9.90;6.40;;;12.40;99.90;;;;;;5055055;28;20063;-76
2021/08/17 03:59:52;;;;;;;9.68;6.22;;;12.30;99.90;;;;;;5055845;28;20033;-77
2021/08/17 04:02:18;;;;;;;11.00;7.53;;;12.30;99.90;;;;;;5056034;28;20028;-76
2021/08/17 04:04:45;;;;;;;10.75;6.97;;;12.30;99.90;;;;;;5067878;28;20032;-76
2021/08/17 04:07:11;;;;;;;11.43;7.53;;;12.30;99.90;;;;;;5065933;28;20036;-76
2021/08/17 04:09:37;;;;;;;15.85;8.05;;;12.30;99.90;;;;;;5064189;28;20463;-76
2021/08/17 04:12:04;;;;;;;11.73;7.35;;;12.20;99.90;;;;;;5055594;28;20055;-76
2021/08/17 04:14:30;;;;;;;13.57;6.35;;;12.20;99.90;;;;;;5056108;28;20040;-76
2021/08/17 04:16:57;;;;;;;9.55;7.43;;;12.00;99.90;;;;;;5055983;28;20037;-76
2021/08/17 04:19:24;;;;;;;10.63;6.95;;;11.90;99.90;;;;;;5063432;28;20039;-77
2021/08/17 04:21:51;;;;;;;11.48;6.90;;;12.00;99.90;;;;;;5055644;28;20052;-83
2021/08/17 04:24:17;;;;;;;12.10;7.72;;;11.90;99.90;;;;;;5056060;28;20462;-77
2021/08/17 04:26:43;;;;;;;13.82;7.47;;;11.80;99.90;;;;;;5055858;28;20048;-75
2021/08/17 04:29:09;;;;;;;17.75;8.48;;;11.80;99.90;;;;;;5055594;28;20043;-76
2021/08/17 04:31:36;;;;;;;10.77;7.25;;;11.70;99.90;;;;;;5055621;28;20040;-76
2021/08/17 04:34:02;;;;;;;13.15;8.65;;;11.70;99.90;;;;;;5055584;28;20048;-79
2021/08/17 04:36:29;;;;;;;10.52;8.07;;;11.60;99.90;;;;;;5055808;28;20037;-77
2021/08/17 04:38:55;;;;;;;11.35;7.15;;;11.60;99.90;;;;;;5055491;28;20389;-76
2021/08/17 04:41:21;;;;;;;12.25;6.22;;;11.60;99.90;;;;;;5055743;28;20029;-81
2021/08/17 04:43:47;;;;;;;11.55;6.40;;;11.60;99.90;;;;;;5055944;28;20029;-75
2021/08/17 04:46:14;;;;;;;11.77;5.72;;;11.50;99.90;;;;;;5065823;28;20029;-76
2021/08/17 04:48:40;;;;;;;13.30;7.10;;;11.50;99.90;;;;;;5060689;28;20052;-76
2021/08/17 04:51:06;;;;;;;13.80;8.02;;;11.60;99.90;;;;;;5063944;28;20029;-76
2021/08/17 04:53:32;;;;;;;12.27;6.72;;;11.50;99.90;;;;;;5070110;28;20060;-76
2021/08/17 04:55:58;;;;;;;10.48;7.28;;;11.50;99.90;;;;;;5067018;28;20025;-76
2021/08/17 04:58:25;;;;;;;10.68;7.88;;;11.60;99.90;;;;;;5055746;28;20048;-83
2021/08/17 05:00:51;;;;;;;13.38;7.68;;;11.50;99.90;;;;;;5055586;28;20048;-76
2021/08/17 05:03:19;;;;;;;15.43;7.20;;;11.60;99.90;;;;;;5055543;28;20111;-77
2021/08/17 05:05:45;;;;;;;10.55;6.35;;;11.80;99.90;;;;;;5055654;28;20029;-78
2021/08/17 05:08:12;;;;;;;10.70;7.28;;;12.00;99.90;;;;;;5053546;28;20223;-76
2021/08/17 05:10:38;;;;;;;9.85;7.20;;;12.10;99.90;;;;;;5055047;28;20040;-76
2021/08/17 05:13:04;;;;;;;12.88;7.22;;;12.10;99.90;;;;;;5055021;28;20037;-75
2021/08/17 05:15:31;;;;;;;15.07;7.90;;;12.00;99.90;;;;;;5055243;28;20021;-76
2021/08/17 05:17:58;;;;;;;13.65;7.07;;;12.40;99.90;;;;;;5055942;28;20033;-76
2021/08/17 05:20:25;;;;;;;10.90;6.55;;;13.10;99.90;;;;;;5074099;28;20048;-77
2021/08/17 05:22:52;;;;;;;14.35;7.35;;;14.00;99.90;;;;;;5055852;28;20044;-77
2021/08/17 05:25:19;;;;;;;660.13;306.15;;;14.60;99.90;;;;;;5057011;28;20037;-75
2021/08/17 05:27:46;;;;;;;1999.90;999.90;;;15.00;99.90;;;;;;5055557;28;20041;-76
2021/08/17 05:30:13;;;;;;;24.58;23.60;;;15.40;99.90;;;;;;5055291;28;20029;-76
2021/08/17 05:32:40;;;;;;;13.63;7.63;;;15.60;99.90;;;;;;5062625;28;20025;-75
2021/08/17 05:35:07;;;;;;;12.23;7.35;;;15.80;99.50;;;;;;5054488;28;20482;-77
2021/08/17 05:37:33;;;;;;;11.45;7.75;;;15.80;96.80;;;;;;5062112;28;20040;-76
2021/08/17 05:39:59;;;;;;;14.40;8.43;;;16.10;96.10;;;;;;5054473;28;20040;-77
2021/08/17 05:42:26;;;;;;;13.38;7.10;;;16.70;95.90;;;;;;5056513;28;20021;-76
2021/08/17 05:44:52;;;;;;;11.75;7.63;;;17.20;92.50;;;;;;5055403;28;20025;-81
2021/08/17 05:47:18;;;;;;;11.65;7.57;;;17.30;91.10;;;;;;5053972;28;20045;-75
2021/08/17 05:49:45;;;;;;;12.40;7.50;;;17.40;90.70;;;;;;5055545;28;20036;-74
2021/08/17 05:52:13;;;;;;;10.43;7.05;;;17.60;90.10;;;;;;5067189;28;20037;-76
2021/08/17 05:54:40;;;;;;;10.45;7.57;;;17.70;90.30;;;;;;5066147;28;20048;-75
2021/08/17 05:57:06;;;;;;;9.48;7.32;;;17.80;88.80;;;;;;5058301;28;20041;-76
2021/08/17 05:59:33;;;;;;;11.35;7.80;;;17.40;89.20;;;;;;5053907;28;20039;-76
2021/08/17 06:02:02;;;;;;;13.48;8.07;;;16.80;88.30;;;;;;5053509;28;20481;-75
2021/08/17 06:04:31;;;;;;;11.35;7.65;;;16.10;90.80;;;;;;5054727;28;20033;-75
2021/08/17 06:06:57;;;;;;;12.27;7.47;;;15.60;92.00;;;;;;5054971;28;20060;-75
2021/08/17 06:09:24;;;;;;;14.07;8.35;;;15.60;92.50;;;;;;5054140;28;20045;-75
2021/08/17 06:11:54;;;;;;;11.88;8.23;;;15.50;92.70;;;;;;5067688;28;20052;-75
2021/08/17 06:14:20;;;;;;;13.55;8.32;;;16.00;91.60;;;;;;5060323;28;20033;-75
2021/08/17 06:16:47;;;;;;;14.27;7.95;;;17.10;89.00;;;;;;5058756;28;20049;-75
2021/08/17 06:19:13;;;;;;;12.02;8.25;;;17.80;88.00;;;;;;5060429;28;20037;-77
2021/08/17 06:21:40;;;;;;;14.40;8.57;;;17.30;85.70;;;;;;5072165;28;20048;-75
2021/08/17 06:24:06;;;;;;;18.27;9.85;;;16.80;87.90;;;;;;5066820;28;20039;-75
2021/08/17 06:26:33;;;;;;;13.35;9.10;;;16.30;88.40;;;;;;5059624;28;20040;-74
2021/08/17 06:29:00;;;;;;;14.95;8.80;;;15.70;90.90;;;;;;5053389;28;20037;-75
2021/08/17 06:31:26;;;;;;;16.55;9.10;;;15.50;92.00;;;;;;5054569;28;20029;-74
2021/08/17 06:33:54;;;;;;;11.27;7.93;;;15.80;93.10;;;;;;5066666;28;20045;-75
2021/08/17 06:36:22;;;;;;;13.00;8.40;;;16.70;90.10;;;;;;5068069;28;20045;-77
2021/08/17 06:38:48;;;;;;;11.70;8.13;;;17.30;87.30;;;;;;5067506;28;20059;-76
2021/08/17 06:41:15;;;;;;;13.52;9.07;;;17.70;86.00;;;;;;5053114;28;20064;-75
2021/08/17 06:43:42;;;;;;;11.45;8.75;;;18.90;82.60;;;;;;5053642;28;20047;-76
2021/08/17 06:46:08;;;;;;;13.18;8.60;;;19.60;77.60;;;;;;5053900;28;20041;-76
2021/08/17 06:48:35;;;;;;;10.75;8.23;;;19.30;77.90;;;;;;5052797;28;20063;-75
2021/08/17 06:51:02;;;;;;;12.25;8.27;;;18.20;81.20;;;;;;5052647;28;20033;-75
2021/08/17 06:53:28;;;;;;;11.15;8.35;;;17.70;82.10;;;;;;5053108;28;20044;-75
2021/08/17 06:55:55;;;;;;;16.85;9.18;;;17.70;85.20;;;;;;5058489;28;20472;-76
2021/08/17 06:58:21;;;;;;;11.70;8.57;;;17.50;81.50;;;;;;5050890;28;20138;-75
2021/08/17 07:00:48;;;;;;;12.20;8.10;;;17.20;83.60;;;;;;5067065;28;20469;-75
2021/08/17 07:03:15;;;;;;;13.32;8.52;;;17.60;82.70;;;;;;5066973;28;20036;-73
2021/08/17 07:05:44;;;;;;;12.82;8.48;;;18.50;80.50;;;;;;5052844;28;20344;-73
2021/08/17 07:08:11;;;;;;;11.40;8.73;;;18.80;78.00;;;;;;5056343;28;20478;-75
2021/08/17 07:10:38;;;;;;;10.90;8.57;;;19.00;75.60;;;;;;5069496;28;20029;-75
2021/08/17 07:13:05;;;;;;;10.75;8.07;;;18.80;76.40;;;;;;5052278;28;20060;-75
2021/08/17 07:15:31;;;;;;;11.18;7.90;;;18.60;76.40;;;;;;5052827;28;20036;-74
2021/08/17 07:17:57;;;;;;;11.45;8.07;;;18.20;77.40;;;;;;5052042;28;20033;-75
2021/08/17 07:20:24;;;;;;;11.07;7.18;;;17.70;80.30;;;;;;5052248;28;20056;-75
2021/08/17 07:22:50;;;;;;;10.82;8.52;;;18.60;78.50;;;;;;5052867;28;20383;-76
2021/08/17 07:25:17;;;;;;;12.35;8.68;;;19.10;75.60;;;;;;5062933;28;20338;-76
2021/08/17 07:27:43;;;;;;;9.18;7.22;;;19.50;75.30;;;;;;5063356;28;20040;-75
2021/08/17 07:30:14;;;;;;;11.70;7.38;;;19.90;73.40;;;;;;5052572;28;20044;-75
2021/08/17 07:32:41;;;;;;;11.35;7.90;;;19.30;72.40;;;;;;5052433;28;20463;-74
2021/08/17 07:35:10;;;;;;;10.75;8.27;;;18.70;75.50;;;;;;5052118;28;20033;-75
2021/08/17 07:37:37;;;;;;;12.82;8.00;;;18.30;75.50;;;;;;5052533;28;20025;-75
2021/08/17 07:40:05;;;;;;;11.52;8.57;;;18.10;78.40;;;;;;5052348;28;20494;-75
2021/08/17 07:42:31;;;;;;;10.27;7.45;;;19.10;77.20;;;;;;5052518;28;20033;-75
2021/08/17 07:44:57;;;;;;;11.05;8.15;;;19.50;73.60;;;;;;5051764;28;20037;-76
2021/08/17 07:47:24;;;;;;;10.93;7.72;;;19.60;72.40;;;;;;5052116;28;20036;-75
2021/08/17 07:49:51;;;;;;;11.82;8.60;;;19.30;72.90;;;;;;5052097;28;20049;-76
2021/08/17 07:52:17;;;;;;;11.32;8.25;;;19.80;71.30;;;;;;5065023;28;20037;-79
2021/08/17 07:54:44;;;;;;;10.38;7.53;;;20.20;69.90;;;;;;5051630;28;20052;-77
2021/08/17 07:57:10;;;;;;;11.70;7.90;;;20.90;69.10;;;;;;5054470;28;20041;-76
2021/08/17 07:59:36;;;;;;;10.23;7.45;;;20.90;68.30;;;;;;5055009;28;20049;-76
2021/08/17 08:02:03;;;;;;;13.93;8.10;;;20.30;69.10;;;;;;5055484;28;20458;-77
2021/08/17 08:04:29;;;;;;;9.40;7.13;;;20.40;69.10;;;;;;5056148;28;20393;-77
2021/08/17 08:06:55;;;;;;;10.52;8.25;;;20.40;70.30;;;;;;5053401;28;20025;-80
2021/08/17 08:09:21;;;;;;;13.05;9.15;;;18.20;72.70;;;;;;5052391;28;20394;-76
2021/08/17 08:11:48;;;;;;;12.70;8.27;;;17.10;77.20;;;;;;5052270;28;20022;-76
2021/08/17 08:14:14;;;;;;;12.00;8.27;;;16.80;78.20;;;;;;5051385;28;20040;-76
2021/08/17 08:16:41;;;;;;;12.90;8.45;;;16.80;76.90;;;;;;5052167;28;20036;-75
2021/08/17 08:19:07;;;;;;;12.88;9.13;;;16.90;76.60;;;;;;5061339;28;20044;-76
2021/08/17 08:21:34;;;;;;;12.05;9.23;;;17.00;77.70;;;;;;5062865;28;20037;-77
2021/08/17 08:24:01;;;;;;;14.90;8.45;;;17.10;77.30;;;;;;5062431;28;20024;-77
2021/08/17 08:26:27;;;;;;;13.38;7.95;;;17.00;78.00;;;;;;5061447;28;20048;-77
2021/08/17 08:28:54;;;;;;;11.48;7.97;;;17.10;76.90;;;;;;5065929;28;20049;-76
2021/08/17 08:31:23;;;;;;;13.93;8.30;;;17.30;76.60;;;;;;5051575;28;20044;-77
2021/08/17 08:33:49;;;;;;;11.18;8.25;;;17.50;77.20;;;;;;5051495;28;20056;-76
2021/08/17 08:36:16;;;;;;;13.90;8.55;;;17.70;77.50;;;;;;5051313;28;20181;-78
2021/08/17 08:38:42;;;;;;;10.23;7.18;;;17.90;76.50;;;;;;5070649;28;20037;-78
2021/08/17 08:41:15;;;;;;;11.40;7.80;;;18.00;76.00;;;;;;5051642;28;20394;-75
2021/08/17 08:43:43;;;;;;;12.38;8.10;;;18.40;73.10;;;;;;5052244;28;20052;-76
2021/08/17 08:46:20;;;;;;;12.43;8.13;;;19.30;73.70;;;;;;5055330;28;20029;-75
2021/08/17 08:48:52;;;;;;;9.60;6.82;;;19.90;70.70;;;;;;5055930;28;20064;-76
2021/08/17 08:51:20;;;;;;;11.02;8.38;;;19.90;69.10;;;;;;5060539;28;20029;-75
2021/08/17 08:53:48;;;;;;;11.35;8.00;;;19.50;70.30;;;;;;5062619;28;20036;-77
2021/08/17 08:56:14;;;;;;;10.20;7.32;;;19.00;73.50;;;;;;5065656;28;20040;-77
2021/08/17 08:58:41;;;;;;;9.30;6.68;;;18.30;69.90;;;;;;5065009;28;20029;-77
2021/08/17 09:01:12;;;;;;;9.57;6.82;;;18.00;72.50;;;;;;5058740;28;20039;-78
2021/08/17 09:03:47;;;;;;;10.07;7.82;;;17.70;73.30;;;;;;5058755;28;20037;-77
2021/08/17 09:06:31;;;;;;;10.38;7.20;;;17.50;75.50;;;;;;5055945;28;20475;-78
2021/08/17 09:09:08;;;;;;;13.15;5.93;;;17.60;71.60;;;;;;5058598;28;20053;-78
2021/08/17 09:11:36;;;;;;;170.25;21.20;;;17.60;71.20;;;;;;5065785;28;20041;-78
2021/08/17 09:14:28;;;;;;;643.58;114.57;;;17.70;71.70;;;;;;5059706;28;20386;-79
2021/08/17 09:16:57;;;;;;;8.25;6.10;;;17.70;71.00;;;;;;5059125;28;20025;-78
2021/08/17 09:19:25;;;;;;;20.42;18.33;;;17.90;70.90;;;;;;5055023;28;20044;-78
2021/08/17 09:21:52;;;;;;;14.45;12.98;;;18.10;69.20;;;;;;5061632;28;20040;-78
2021/08/17 09:24:32;;;;;;;524.38;124.40;;;17.90;71.00;;;;;;5054933;28;20036;-77
2021/08/17 09:27:04;;;;;;;34.60;31.60;;;17.80;73.20;;;;;;5073244;28;20029;-78
2021/08/17 09:29:36;;;;;;;25.25;23.35;;;17.80;74.80;;;;;;5057205;28;20040;-78
2021/08/17 09:32:16;;;;;;;15.73;13.95;;;17.80;76.10;;;;;;5063848;28;20048;-78
2021/08/17 09:34:44;;;;;;;16.60;14.63;;;17.70;77.00;;;;;;5054967;28;20494;-77
2021/08/17 09:37:11;;;;;;;11.85;8.32;;;17.80;77.40;;;;;;5054596;28;20314;-76
2021/08/17 09:39:44;;;;;;;12.25;8.18;;;17.80;77.50;;;;;;5073060;28;20047;-75
2021/08/17 09:42:12;;;;;;;212.52;123.88;;;17.80;77.10;;;;;;5055512;28;20478;-75
2021/08/17 09:44:43;;;;;;;1130.10;169.70;;;18.00;75.90;;;;;;5054100;28;20358;-78
2021/08/17 09:47:09;;;;;;;12.90;8.98;;;18.20;75.70;;;;;;5071716;28;20033;-78
2021/08/17 09:49:35;;;;;;;101.78;17.73;;;18.20;73.90;;;;;;5040739;28;20560;-78
2021/08/17 09:52:14;;;;;;;20.77;19.20;;;18.50;74.40;;;;;;5054921;28;20033;-76
2021/08/17 09:54:46;;;;;;;36.28;33.75;;;18.80;73.20;;;;;;5063065;28;20033;-76
2021/08/17 09:57:14;;;;;;;71.40;15.38;;;18.80;73.10;;;;;;5056418;28;20037;-76
2021/08/17 09:59:45;;;;;;;1088.95;582.42;;;19.00;70.50;;;;;;5054910;28;20477;-76
2021/08/17 10:02:12;;;;;;;236.73;223.52;;;19.10;70.80;;;;;;5057159;28;20474;-75
2021/08/17 10:04:41;;;;;;;259.80;242.80;;;18.60;71.00;;;;;;5054055;28;20036;-76
2021/08/17 10:07:09;;;;;;;351.98;328.38;;;18.10;73.30;;;;;;5054280;28;20029;-75
2021/08/17 10:09:37;;;;;;;225.88;195.05;;;18.20;73.30;;;;;;5070337;28;20032;-76
2021/08/17 10:12:05;;;;;;;298.63;285.52;;;18.30;72.00;;;;;;5054274;28;20028;-76
2021/08/17 10:14:32;;;;;;;227.40;218.48;;;18.10;73.80;;;;;;5053890;28;20024;-76
2021/08/17 10:16:58;;;;;;;104.13;94.78;;;18.00;75.30;;;;;;5068173;28;20037;-75
2021/08/17 10:19:29;;;;;;;90.43;86.53;;;17.90;76.40;;;;;;5053968;28;20029;-76
2021/08/17 10:21:57;;;;;;;67.97;64.50;;;17.80;75.70;;;;;;5056026;28;20024;-76
2021/08/17 10:24:32;;;;;;;150.98;138.45;;;17.90;76.10;;;;;;5071050;28;20029;-75
2021/08/17 10:27:18;;;;;;;237.55;226.90;;;18.40;76.00;;;;;;5054054;28;20037;-80
2021/08/17 10:30:06;;;;;;;212.90;203.13;;;18.90;73.10;;;;;;5071321;28;20033;-76
2021/08/17 10:32:35;;;;;;;193.52;186.00;;;18.90;73.40;;;;;;5059688;28;20029;-77
2021/08/17 10:35:01;;;;;;;196.35;179.68;;;19.20;73.20;;;;;;5052669;28;20049;-75
2021/08/17 10:37:28;;;;;;;212.48;199.30;;;19.40;71.60;;;;;;5052746;28;20044;-76
2021/08/17 10:39:54;;;;;;;124.20;114.13;;;19.60;70.70;;;;;;5053505;28;20040;-75
2021/08/17 10:42:25;;;;;;;15.88;14.38;;;19.50;69.00;;;;;;5053121;28;20029;-76
2021/08/17 10:44:53;;;;;;;15.65;13.07;;;19.50;69.50;;;;;;5054336;28;20032;-76
2021/08/17 10:47:32;;;;;;;47.65;14.23;;;18.90;68.10;;;;;;5067291;28;20048;-76
2021/08/17 10:49:59;;;;;;;11.95;9.07;;;19.00;66.90;;;;;;5060168;28;20397;-76
2021/08/17 10:52:34;;;;;;;542.08;87.38;;;18.70;68.10;;;;;;5075821;28;20028;-75
2021/08/17 10:55:23;;;;;;;9.65;7.03;;;18.90;69.00;;;;;;5066305;28;20603;-78
2021/08/17 10:57:51;;;;;;;7.80;5.77;;;18.70;67.20;;;;;;5053279;28;20056;-77
2021/08/17 11:00:43;;;;;;;9.75;6.70;;;18.70;66.20;;;;;;5052883;28;20025;-77
2021/08/17 11:03:10;;;;;;;11.07;7.03;;;19.20;65.10;;;;;;5052102;28;20048;-78
2021/08/17 11:05:51;;;;;;;8.38;5.88;;;19.20;65.60;;;;;;5052757;28;20515;-77
2021/08/17 11:08:33;;;;;;;10.90;7.63;;;19.30;64.10;;;;;;5060807;28;20370;-77
2021/08/17 11:11:17;;;;;;;9.85;7.03;;;19.40;64.20;;;;;;5061461;28;20040;-77
2021/08/17 11:14:03;;;;;;;9.63;6.80;;;19.60;65.70;;;;;;5056115;28;20033;-78
2021/08/17 11:16:30;;;;;;;10.73;5.70;;;20.30;64.50;;;;;;5063181;28;20045;-78
2021/08/17 11:18:59;;;;;;;8.68;6.60;;;20.10;61.90;;;;;;5053076;28;20033;-77
2021/08/17 11:21:33;;;;;;;11.25;6.55;;;20.00;62.10;;;;;;5050980;28;20394;-77
2021/08/17 11:24:10;;;;;;;8.63;6.68;;;20.40;62.10;;;;;;5067438;28;20044;-77
2021/08/17 11:26:37;;;;;;;7.85;5.65;;;20.10;60.50;;;;;;5065470;28;20049;-75
2021/08/17 11:29:04;;;;;;;8.77;5.68;;;20.00;61.90;;;;;;5051876;28;20394;-76
2021/08/17 11:31:30;;;;;;;7.50;5.55;;;20.20;60.30;;;;;;5051481;28;20047;-75
2021/08/17 11:34:21;;;;;;;7.78;5.53;;;19.80;60.40;;;;;;5068065;28;20049;-77
2021/08/17 11:37:11;;;;;;;8.73;5.80;;;19.40;60.40;;;;;;5055082;28;20025;-75
2021/08/17 11:39:41;;;;;;;;;;;19.40;61.00;;;;;;5046113;28;20378;-75
2021/08/17 11:42:10;;;;;;;8.52;5.90;;;19.40;63.60;;;;;;5053723;28;20365;-76
2021/08/17 11:44:36;;;;;;;7.95;6.13;;;19.40;62.40;;;;;;5053244;28;20398;-76
2021/08/17 11:47:13;;;;;;;9.23;5.10;;;19.40;62.50;;;;;;5053332;28;20041;-75
2021/08/17 11:49:40;;;;;;;9.73;6.32;;;19.30;60.70;;;;;;5052529;28;20398;-75
2021/08/17 11:52:15;;;;;;;9.25;6.45;;;19.20;63.20;;;;;;5069588;28;20454;-77
2021/08/17 11:54:45;;;;;;;11.60;6.40;;;19.60;61.80;;;;;;5052204;28;20025;-76
2021/08/17 11:57:12;;;;;;;;;;;19.90;60.80;;;;;;5062191;28;20051;-76
2021/08/17 11:59:44;;;;;;;10.30;6.68;;;20.20;61.00;;;;;;5065639;28;19916;-75
2021/08/17 12:02:18;;;;;;;6.78;5.47;;;20.20;61.00;;;;;;5056949;28;20044;-75
2021/08/17 12:04:52;;;;;;;8.25;5.90;;;20.40;60.90;;;;;;5056320;28;20386;-74
2021/08/17 12:07:19;;;;;;;10.30;6.45;;;20.20;61.10;;;;;;5065418;28;20037;-76
2021/08/17 12:09:47;;;;;;;8.10;5.75;;;20.30;61.10;;;;;;5055809;28;20039;-74
2021/08/17 12:12:17;;;;;;;7.90;5.63;;;20.60;56.90;;;;;;5052378;28;20454;-75
2021/08/17 12:14:45;;;;;;;9.32;5.50;;;20.40;57.90;;;;;;5066231;28;20029;-75
2021/08/17 12:17:20;;;;;;;7.25;5.78;;;20.70;58.60;;;;;;5054849;28;20028;-75
2021/08/17 12:19:48;;;;;;;5.97;4.47;;;20.80;57.40;;;;;;5055753;28;20505;-75
2021/08/17 12:22:28;;;;;;;6.03;4.53;;;20.80;56.20;;;;;;5055760;28;20378;-77
2021/08/17 12:24:55;;;;;;;7.57;5.13;;;20.40;56.20;;;;;;5056156;28;20477;-75
2021/08/17 12:27:27;;;;;;;7.20;5.28;;;20.10;55.40;;;;;;5055384;28;20037;-76
2021/08/17 12:29:54;;;;;;;7.95;5.25;;;20.30;55.90;;;;;;5054409;28;20041;-76
2021/08/17 12:32:27;;;;;;;7.93;5.28;;;20.10;55.80;;;;;;5055652;28;20378;-78
2021/08/17 12:34:53;;;;;;;8.18;5.28;;;19.80;57.00;;;;;;5055960;28;20041;-76
2021/08/17 12:37:27;;;;;;;7.60;5.38;;;19.90;57.60;;;;;;5055469;28;20508;-76
2021/08/17 12:40:00;;;;;;;9.38;5.72;;;19.80;56.00;;;;;;5055902;28;20458;-76
2021/08/17 12:42:28;;;;;;;7.15;5.15;;;19.70;57.30;;;;;;5068837;28;20045;-75
2021/08/17 12:44:55;;;;;;;7.53;5.95;;;19.80;57.50;;;;;;5055509;28;20036;-76